createdAt,value
2018-08-16T00:00:59.360Z,95357.30
2018-08-16T00:03:28.643Z,95354.33
2018-08-16T00:05:57.943Z,95354.75
2018-08-16T00:08:27.233Z,95354.41
2018-08-16T00:10:56.510Z,95354.02
2018-08-16T00:13:25.755Z,95354.02
2018-08-16T00:15:55.020Z,95356.09
2018-08-16T00:18:24.281Z,95355.16
2018-08-16T00:20:53.542Z,95344.68
2018-08-16T00:23:22.816Z,95348.27
2018-08-16T00:25:52.095Z,95340.75
2018-08-16T00:28:21.362Z,95341.94
2018-08-16T00:30:50.603Z,95344.92
2018-08-16T00:33:19.858Z,95347.48
2018-08-16T00:35:49.099Z,95350.88
2018-08-16T00:38:18.363Z,95342.70
2018-08-16T00:40:47.646Z,95339.98
2018-08-16T00:43:16.890Z,95339.34
2018-08-16T00:45:46.185Z,95330.27
2018-08-16T00:48:15.475Z,95335.20
2018-08-16T00:50:44.732Z,95332.55
2018-08-16T00:53:14.007Z,95333.12
2018-08-16T00:55:44.491Z,95338.73
2018-08-16T00:58:13.738Z,95335.47
2018-08-16T01:00:42.993Z,95335.47
2018-08-16T01:03:12.256Z,95337.63
2018-08-16T01:05:41.501Z,95339.09
2018-08-16T01:08:10.767Z,95334.23
2018-08-16T01:10:39.992Z,95331.95
2018-08-16T01:13:09.283Z,95328.63
2018-08-16T01:15:38.539Z,95330.16
2018-08-16T01:18:07.780Z,95330.88
2018-08-16T01:20:37.298Z,95330.69
2018-08-16T01:23:06.695Z,95324.70
2018-08-16T01:25:35.924Z,95320.63
2018-08-16T01:28:05.186Z,95317.36
2018-08-16T01:30:34.434Z,95323.19
2018-08-16T01:33:03.703Z,95317.31
2018-08-16T01:35:32.974Z,95318.95
2018-08-16T01:38:02.205Z,95319.26
2018-08-16T01:40:31.455Z,95315.70
2018-08-16T01:43:00.691Z,95312.06
2018-08-16T01:45:30.203Z,95319.34
2018-08-16T01:47:59.466Z,95312.81
2018-08-16T01:50:28.710Z,95318.03
2018-08-16T01:52:57.995Z,95309.86
2018-08-16T01:55:27.214Z,95311.70
2018-08-16T01:57:56.492Z,95312.82
2018-08-16T02:00:25.720Z,95310.58
2018-08-16T02:02:54.989Z,95304.78
2018-08-16T02:05:24.242Z,95308.30
2018-08-16T02:07:53.535Z,95301.10
2018-08-16T02:10:22.785Z,95307.25
2018-08-16T02:12:52.038Z,95306.72
2018-08-16T02:15:21.299Z,95303.61
2018-08-16T02:17:50.559Z,95302.14
2018-08-16T02:20:20.578Z,95302.15
2018-08-16T02:22:49.802Z,95300.33
2018-08-16T02:25:19.044Z,95302.97
2018-08-16T02:27:48.298Z,95301.78
2018-08-16T02:30:17.540Z,95295.75
2018-08-16T02:32:46.780Z,95298.73
2018-08-16T02:35:16.019Z,95297.06
2018-08-16T02:37:45.260Z,95296.43
2018-08-16T02:40:14.506Z,95296.08
2018-08-16T02:42:43.761Z,95288.11
2018-08-16T02:45:12.990Z,95288.78
2018-08-16T02:47:42.223Z,95295.52
2018-08-16T02:50:11.448Z,95293.91
2018-08-16T02:52:40.685Z,95300.29
2018-08-16T02:55:09.922Z,95293.75
2018-08-16T02:57:39.173Z,95289.14
2018-08-16T03:00:09.821Z,95300.96
2018-08-16T03:02:39.222Z,95293.56
2018-08-16T03:05:08.463Z,95288.66
2018-08-16T03:07:37.714Z,95290.83
2018-08-16T03:10:08.272Z,95295.45
2018-08-16T03:12:37.523Z,95294.78
2018-08-16T03:15:08.901Z,95287.72
2018-08-16T03:17:38.155Z,95288.58
2018-08-16T03:20:07.522Z,95285.81
2018-08-16T03:22:36.969Z,95286.82
2018-08-16T03:25:06.211Z,95284.34
2018-08-16T03:27:35.463Z,95281.38
2018-08-16T03:30:04.883Z,95284.68
2018-08-16T03:32:34.136Z,95283.37
2018-08-16T03:40:00.218Z,95271.09
2018-08-16T03:42:29.471Z,95278.61
2018-08-16T03:44:58.734Z,95278.94
2018-08-16T03:47:28.345Z,95274.36
2018-08-16T03:49:57.609Z,95278.00
2018-08-16T03:52:26.848Z,95272.44
2018-08-16T03:54:56.090Z,95275.73
2018-08-16T03:57:25.323Z,95274.75
2018-08-16T03:59:54.551Z,95281.31
2018-08-16T04:02:23.811Z,95276.06
2018-08-16T04:04:53.055Z,95283.77
2018-08-16T04:07:22.286Z,95284.41
2018-08-16T04:09:51.507Z,95283.09
2018-08-16T04:12:20.739Z,95286.39
2018-08-16T04:14:49.969Z,95286.39
2018-08-16T04:17:19.202Z,95292.47
2018-08-16T04:19:48.464Z,95294.11
2018-08-16T04:22:17.710Z,95294.59
2018-08-16T04:24:46.941Z,95295.09
2018-08-16T04:27:16.187Z,95290.64
2018-08-16T04:29:45.460Z,95303.62
2018-08-16T04:32:14.694Z,95296.88
2018-08-16T04:34:43.972Z,95289.63
2018-08-16T04:37:13.219Z,95290.45
2018-08-16T04:39:42.553Z,95292.90
2018-08-16T04:42:11.800Z,95287.61
2018-08-16T04:44:42.449Z,95286.73
2018-08-16T04:47:11.712Z,95287.53
2018-08-16T04:49:40.940Z,95285.39
2018-08-16T04:52:10.413Z,95288.84
2018-08-16T04:54:39.658Z,95286.17
2018-08-16T04:57:08.887Z,95288.11
2018-08-16T04:59:38.130Z,95283.48
2018-08-16T05:02:07.432Z,95278.66
2018-08-16T05:04:36.660Z,95278.84
2018-08-16T05:07:05.894Z,95282.08
2018-08-16T05:09:35.115Z,95283.46
2018-08-16T05:12:04.343Z,95281.86
2018-08-16T05:14:33.559Z,95285.74
2018-08-16T05:17:02.823Z,95284.67
2018-08-16T05:19:32.043Z,95281.35
2018-08-16T05:22:01.287Z,95280.35
2018-08-16T05:24:30.542Z,95284.23
2018-08-16T05:26:59.754Z,95283.84
2018-08-16T05:29:28.998Z,95273.88
2018-08-16T05:31:58.226Z,95278.62
2018-08-16T05:34:27.474Z,95279.27
2018-08-16T05:36:56.689Z,95268.53
2018-08-16T05:39:25.939Z,95272.98
2018-08-16T05:41:55.178Z,95267.02
2018-08-16T05:44:24.431Z,95267.84
2018-08-16T05:46:53.699Z,95269.09
2018-08-16T05:49:22.957Z,95268.39
2018-08-16T05:51:52.213Z,95269.92
2018-08-16T05:54:21.429Z,95265.59
2018-08-16T05:56:50.683Z,95266.96
2018-08-16T05:59:19.963Z,95261.45
2018-08-16T06:01:49.199Z,95258.41
2018-08-16T06:04:18.438Z,95256.47
2018-08-16T06:06:47.691Z,95254.97
2018-08-16T06:09:16.962Z,95259.04
2018-08-16T06:11:46.208Z,95258.39
2018-08-16T06:14:15.482Z,95262.73
2018-08-16T06:16:44.767Z,95252.00
2018-08-16T06:19:14.008Z,95255.27
2018-08-16T06:21:43.255Z,95254.66
2018-08-16T06:24:12.491Z,95250.39
2018-08-16T06:26:41.727Z,95246.09
2018-08-16T06:29:10.995Z,95250.03
2018-08-16T06:31:40.312Z,95247.30
2018-08-16T06:34:09.527Z,95244.05
2018-08-16T06:36:38.772Z,95251.33
2018-08-16T06:39:11.046Z,95242.97
2018-08-16T06:41:40.880Z,95241.18
2018-08-16T06:44:10.455Z,95242.95
2018-08-16T06:46:39.838Z,95248.27
2018-08-16T06:49:23.415Z,95240.39
2018-08-16T06:51:52.642Z,95234.17
2018-08-16T06:54:21.887Z,95234.53
2018-08-16T06:56:51.114Z,95234.20
2018-08-16T06:59:20.355Z,95232.67
2018-08-16T07:01:49.578Z,95228.12
2018-08-16T07:04:18.806Z,95228.54
2018-08-16T07:06:48.052Z,95230.13
2018-08-16T07:09:17.323Z,95228.66
2018-08-16T07:11:46.582Z,95227.84
2018-08-16T07:14:15.835Z,95233.61
2018-08-16T07:16:45.083Z,95221.05
2018-08-16T07:19:14.298Z,95230.12
2018-08-16T07:21:43.543Z,95221.66
2018-08-16T07:24:12.772Z,95222.70
2018-08-16T07:29:41.540Z,95224.50
2018-08-16T07:32:10.758Z,95221.77
2018-08-16T07:34:39.996Z,95219.73
2018-08-16T07:37:09.230Z,95221.75
2018-08-16T07:39:38.493Z,95218.10
2018-08-16T07:42:07.718Z,95217.02
2018-08-16T07:44:37.078Z,95220.52
2018-08-16T07:47:06.795Z,95221.61
2018-08-16T07:49:36.067Z,95218.02
2018-08-16T07:52:05.380Z,95214.09
2018-08-16T07:54:34.554Z,95215.81
2018-08-16T07:57:03.876Z,95220.95
2018-08-16T07:59:33.174Z,95208.36
2018-08-16T08:02:02.420Z,95213.06
2018-08-16T08:04:31.666Z,95212.50
2018-08-16T08:07:00.888Z,95208.81
2018-08-16T08:09:30.352Z,95210.22
2018-08-16T08:11:59.411Z,95217.00
2018-08-16T08:14:29.914Z,95206.64
2018-08-16T08:16:59.191Z,95209.50
2018-08-16T08:19:28.419Z,95206.05
2018-08-16T08:21:57.732Z,95204.88
2018-08-16T08:24:26.983Z,95206.81
2018-08-16T08:26:56.210Z,95198.25
2018-08-16T08:29:25.466Z,95192.91
2018-08-16T08:31:54.711Z,95188.73
2018-08-16T08:34:24.687Z,95195.34
2018-08-16T08:37:11.158Z,95185.92
2018-08-16T08:39:40.403Z,95186.91
2018-08-16T08:42:09.693Z,95190.25
2018-08-16T08:44:38.977Z,95192.67
2018-08-16T08:47:08.212Z,95182.09
2018-08-16T08:49:37.488Z,95185.92
2018-08-16T08:52:06.739Z,95188.27
2018-08-16T08:54:54.110Z,95182.72
2018-08-16T08:57:40.228Z,95184.27
2018-08-16T09:00:09.554Z,95178.05
2018-08-16T09:02:38.780Z,95174.78
2018-08-16T09:05:08.324Z,95168.59
2018-08-16T09:07:37.619Z,95176.05
2018-08-16T09:11:21.011Z,95168.02
2018-08-16T09:14:08.107Z,95161.66
2018-08-16T09:16:39.339Z,95160.37
2018-08-16T09:19:09.323Z,95156.70
2018-08-16T09:21:38.695Z,95151.77
2018-08-16T09:24:08.104Z,95149.23
2018-08-16T09:26:41.802Z,95147.45
2018-08-16T09:30:36.281Z,95143.02
2018-08-16T09:33:22.320Z,95145.36
2018-08-16T09:35:51.593Z,95139.81
2018-08-16T09:38:20.893Z,95142.56
2018-08-16T09:40:50.158Z,95138.67
2018-08-16T09:43:19.551Z,95131.28
2018-08-16T09:47:12.434Z,95130.77
2018-08-16T09:49:48.483Z,95121.18
2018-08-16T09:52:18.059Z,95121.25
2018-08-16T09:54:47.446Z,95120.64
2018-08-16T09:57:17.095Z,95121.66
2018-08-16T09:59:46.349Z,95111.95
2018-08-16T10:02:17.542Z,95114.58
2018-08-16T10:04:46.601Z,95121.15
2018-08-16T10:07:15.824Z,95113.56
2018-08-16T10:09:45.100Z,95112.25
2018-08-16T10:12:14.338Z,95117.11
2018-08-16T10:14:43.588Z,95122.30
2018-08-16T10:17:12.841Z,95120.36
2018-08-16T10:19:42.116Z,95108.09
2018-08-16T10:22:11.376Z,95113.40
2018-08-16T10:24:40.625Z,95111.98
2018-08-16T10:27:09.883Z,95110.91
2018-08-16T10:29:39.115Z,95113.30
2018-08-16T10:32:08.359Z,95107.42
2018-08-16T10:34:37.624Z,95093.37
2018-08-16T10:37:06.982Z,95100.73
2018-08-16T10:39:36.160Z,95095.20
2018-08-16T10:42:05.450Z,95087.09
2018-08-16T10:44:34.748Z,95096.88
2018-08-16T10:47:03.983Z,95087.16
2018-08-16T10:49:33.243Z,95085.30
2018-08-16T10:52:02.490Z,95087.42
2018-08-16T10:54:31.747Z,95082.52
2018-08-16T10:57:00.998Z,95077.70
2018-08-16T10:59:30.271Z,95084.23
2018-08-16T11:01:59.498Z,95084.58
2018-08-16T11:04:29.046Z,95077.28
2018-08-16T11:06:58.318Z,95072.08
2018-08-16T11:11:55.318Z,95065.46
2018-08-16T11:14:24.551Z,95070.63
2018-08-16T11:16:53.923Z,95067.36
2018-08-16T11:19:23.185Z,95060.00
2018-08-16T11:21:52.551Z,95059.81
2018-08-16T11:24:21.762Z,95061.17
2018-08-16T11:26:51.027Z,95056.09
2018-08-16T11:29:20.271Z,95061.20
2018-08-16T11:31:49.513Z,95054.84
2018-08-16T11:34:18.767Z,95052.41
2018-08-16T11:36:47.973Z,95057.05
2018-08-16T11:39:17.264Z,95051.64
2018-08-16T11:41:46.491Z,95057.03
2018-08-16T11:44:15.775Z,95050.58
2018-08-16T11:46:45.013Z,95039.10
2018-08-16T11:49:14.296Z,95047.50
2018-08-16T11:51:43.558Z,95046.91
2018-08-16T11:54:12.838Z,95044.23
2018-08-16T11:56:42.063Z,95032.39
2018-08-16T11:59:11.301Z,95034.30
2018-08-16T12:01:40.561Z,95028.91
2018-08-16T12:04:09.812Z,95030.97
2018-08-16T12:06:39.205Z,95033.73
2018-08-16T12:09:09.690Z,95030.31
2018-08-16T12:11:38.923Z,95028.23
2018-08-16T12:14:08.182Z,95024.02
2018-08-16T12:16:37.398Z,95028.73
2018-08-16T12:19:06.639Z,95022.76
2018-08-16T12:21:35.912Z,95015.09
2018-08-16T12:24:05.189Z,95016.17
2018-08-16T12:26:34.439Z,95005.79
2018-08-16T12:29:03.771Z,95013.53
2018-08-16T12:31:33.011Z,95011.93
2018-08-16T12:34:02.273Z,95002.91
2018-08-16T12:36:31.504Z,95001.96
2018-08-16T12:39:01.057Z,95005.12
2018-08-16T12:41:31.216Z,95002.97
2018-08-16T12:44:00.450Z,94998.14
2018-08-16T12:46:29.715Z,94999.27
2018-08-16T12:48:58.979Z,94991.94
2018-08-16T12:51:28.208Z,94983.61
2018-08-16T12:53:57.484Z,94986.70
2018-08-16T12:56:26.748Z,94985.36
2018-08-16T12:58:56.232Z,94980.39
2018-08-16T13:01:25.501Z,94984.38
2018-08-16T13:03:54.789Z,94974.77
2018-08-16T13:06:24.011Z,94970.16
2018-08-16T13:08:53.306Z,94965.61
2018-08-16T13:11:22.503Z,94960.20
2018-08-16T13:13:51.715Z,94955.19
2018-08-16T13:16:20.934Z,94953.44
2018-08-16T13:18:50.188Z,94956.02
2018-08-16T13:21:19.440Z,94947.20
2018-08-16T13:23:48.671Z,94947.13
2018-08-16T13:26:17.936Z,94943.04
2018-08-16T13:28:47.179Z,94941.39
2018-08-16T13:31:16.580Z,94939.05
2018-08-16T13:33:45.811Z,94943.24
2018-08-16T13:36:15.064Z,94937.10
2018-08-16T13:38:44.347Z,94939.23
2018-08-16T13:41:13.606Z,94938.72
2018-08-16T13:43:42.859Z,94939.25
2018-08-16T13:46:12.112Z,94931.79
2018-08-16T13:48:41.371Z,94928.73
2018-08-16T13:51:10.611Z,94927.18
2018-08-16T13:53:39.859Z,94928.89
2018-08-16T13:56:09.115Z,94921.69
2018-08-16T13:58:38.387Z,94921.12
2018-08-16T14:01:07.606Z,94924.84
2018-08-16T14:03:36.826Z,94923.18
2018-08-16T14:06:07.831Z,94913.01
2018-08-16T14:08:37.057Z,94915.95
2018-08-16T14:11:06.603Z,94918.82
2018-08-16T14:13:35.835Z,94912.80
2018-08-16T14:16:05.093Z,94907.47
2018-08-16T14:18:34.421Z,94907.41
2018-08-16T14:21:03.659Z,94901.58
2018-08-16T14:23:32.946Z,94908.78
2018-08-16T14:26:02.240Z,94902.67
2018-08-16T14:28:31.407Z,94896.79
2018-08-16T14:31:00.635Z,94897.89
2018-08-16T14:33:29.871Z,94899.62
2018-08-16T14:35:59.104Z,94897.34
2018-08-16T14:38:28.330Z,94890.95
2018-08-16T14:40:57.571Z,94892.30
2018-08-16T14:43:26.804Z,94891.61
2018-08-16T14:45:56.040Z,94894.84
2018-08-16T14:48:25.274Z,94894.00
2018-08-16T14:50:54.533Z,94893.25
2018-08-16T14:53:23.764Z,94888.18
2018-08-16T14:55:52.982Z,94888.81
2018-08-16T14:58:22.219Z,94885.05
2018-08-16T15:00:51.442Z,94879.03
2018-08-16T15:03:20.670Z,94878.17
2018-08-16T15:05:49.902Z,94874.92
2018-08-16T15:08:19.129Z,94877.57
2018-08-16T15:10:48.421Z,94872.86
2018-08-16T15:13:17.610Z,94872.72
2018-08-16T15:15:46.822Z,94881.56
2018-08-16T15:18:17.302Z,94878.08
2018-08-16T15:20:46.545Z,94879.16
2018-08-16T15:23:15.784Z,94873.19
2018-08-16T15:25:45.059Z,94878.97
2018-08-16T15:28:14.298Z,94880.59
2018-08-16T15:30:43.558Z,94876.84
2018-08-16T15:33:12.802Z,94876.85
2018-08-16T15:35:42.039Z,94879.84
2018-08-16T15:38:11.255Z,94882.69
2018-08-16T15:40:40.524Z,94876.13
2018-08-16T15:43:09.740Z,94878.44
2018-08-16T15:45:39.012Z,94877.04
2018-08-16T15:48:15.222Z,94875.58
2018-08-16T15:50:45.390Z,94870.70
2018-08-16T15:53:14.627Z,94878.80
2018-08-16T15:55:43.864Z,94878.28
2018-08-16T15:58:13.102Z,94879.59
2018-08-16T16:00:42.328Z,94882.86
2018-08-16T16:03:11.599Z,94882.59
2018-08-16T16:05:40.875Z,94879.11
2018-08-16T16:08:10.065Z,94881.02
2018-08-16T16:10:39.307Z,94874.22
2018-08-16T16:13:08.569Z,94876.12
2018-08-16T16:15:37.770Z,94873.93
2018-08-16T16:18:07.367Z,94876.44
2018-08-16T16:20:36.628Z,94870.48
2018-08-16T16:23:05.911Z,94876.41
2018-08-16T16:25:35.138Z,94870.78
2018-08-16T16:28:04.386Z,94865.66
2018-08-16T16:30:33.722Z,94862.71
2018-08-16T16:33:02.966Z,94870.23
2018-08-16T16:35:32.220Z,94869.98
2018-08-16T16:38:01.483Z,94860.55
2018-08-16T16:40:30.778Z,94863.25
2018-08-16T16:43:00.015Z,94868.62
2018-08-16T16:45:29.242Z,94862.45
2018-08-16T16:47:58.480Z,94866.97
2018-08-16T16:50:27.719Z,94867.80
2018-08-16T16:52:57.220Z,94869.44
2018-08-16T16:55:26.434Z,94872.13
2018-08-16T16:57:55.682Z,94869.17
2018-08-16T17:00:24.918Z,94875.84
2018-08-16T17:02:54.189Z,94870.87
2018-08-16T17:05:23.406Z,94871.69
2018-08-16T17:07:53.685Z,94867.38
2018-08-16T17:10:23.029Z,94881.31
2018-08-16T17:12:52.251Z,94871.93
2018-08-16T17:15:21.487Z,94874.06
2018-08-16T17:17:50.724Z,94866.23
2018-08-16T17:20:19.950Z,94871.56
2018-08-16T17:22:49.179Z,94871.83
2018-08-16T17:25:18.394Z,94869.60
2018-08-16T17:27:47.635Z,94866.85
2018-08-16T17:30:16.863Z,94870.19
2018-08-16T17:32:46.102Z,94869.31
2018-08-16T17:35:15.319Z,94870.19
2018-08-16T17:37:44.583Z,94867.53
2018-08-16T17:42:42.087Z,94861.02
2018-08-16T17:45:11.316Z,94857.38
2018-08-16T17:47:40.595Z,94866.05
2018-08-16T17:50:10.040Z,94863.51
2018-08-16T17:52:39.367Z,94871.42
2018-08-16T17:55:08.734Z,94873.13
2018-08-16T17:57:37.986Z,94867.70
2018-08-16T18:00:09.198Z,94867.95
2018-08-16T18:02:38.583Z,94864.81
2018-08-16T18:05:07.807Z,94867.17
2018-08-16T18:07:37.030Z,94865.23
2018-08-16T18:10:07.411Z,94865.31
2018-08-16T18:12:37.869Z,94863.86
2018-08-16T18:15:10.171Z,94866.45
2018-08-16T18:17:39.397Z,94861.19
2018-08-16T18:20:08.721Z,94867.67
2018-08-16T18:22:38.167Z,94869.13
2018-08-16T18:25:08.071Z,94872.30
2018-08-16T18:27:37.548Z,94878.05
2018-08-16T18:30:08.834Z,94879.11
2018-08-16T18:32:38.068Z,94878.81
2018-08-16T18:35:07.314Z,94876.95
2018-08-16T18:37:36.583Z,94884.53
2018-08-16T18:40:06.768Z,94880.03
2018-08-16T18:42:36.060Z,94882.00
2018-08-16T18:45:05.824Z,94884.66
2018-08-16T18:47:35.066Z,94889.45
2018-08-16T18:50:04.322Z,94897.30
2018-08-16T18:52:33.543Z,94893.10
2018-08-16T18:55:03.059Z,94901.88
2018-08-16T18:57:32.289Z,94907.99
2018-08-16T19:00:01.548Z,94906.25
2018-08-16T19:02:30.795Z,94916.09
2018-08-16T19:05:00.040Z,94910.75
2018-08-16T19:07:29.345Z,94913.08
2018-08-16T19:09:58.483Z,94912.58
2018-08-16T19:12:27.706Z,94913.16
2018-08-16T19:14:56.936Z,94919.28
2018-08-16T19:17:26.187Z,94921.55
2018-08-16T19:19:55.414Z,94918.76
2018-08-16T19:22:24.651Z,94919.43
2018-08-16T19:24:53.942Z,94926.27
2018-08-16T19:27:23.187Z,94925.80
2018-08-16T19:29:52.446Z,94922.38
2018-08-16T19:32:21.650Z,94919.85
2018-08-16T19:34:50.907Z,94925.74
2018-08-16T19:37:20.120Z,94927.05
2018-08-16T19:39:49.347Z,94924.29
2018-08-16T19:42:18.842Z,94920.27
2018-08-16T19:44:48.113Z,94919.89
2018-08-16T19:47:17.334Z,94924.64
2018-08-16T19:49:46.614Z,94913.99
2018-08-16T19:52:15.914Z,94912.84
2018-08-16T19:54:45.141Z,94917.95
2018-08-16T19:57:14.463Z,94911.80
2018-08-16T19:59:43.710Z,94916.11
2018-08-16T20:02:13.202Z,94908.18
2018-08-16T20:04:42.502Z,94907.89
2018-08-16T20:07:11.859Z,94902.34
2018-08-16T20:09:41.003Z,94907.25
2018-08-16T20:12:10.228Z,94902.68
2018-08-16T20:14:39.461Z,94900.81
2018-08-16T20:17:08.696Z,94903.38
2018-08-16T20:19:38.094Z,94903.04
2018-08-16T20:22:16.302Z,94905.52
2018-08-16T20:24:45.967Z,94904.20
2018-08-16T20:27:15.350Z,94904.59
2018-08-16T20:29:45.249Z,94908.75
2018-08-16T20:32:14.587Z,94913.00
2018-08-16T20:34:43.840Z,94906.52
2018-08-16T20:37:13.075Z,94907.95
2018-08-16T20:39:42.330Z,94912.42
2018-08-16T20:42:12.811Z,94912.42
2018-08-16T20:44:42.054Z,94912.02
2018-08-16T20:47:11.273Z,94919.41
2018-08-16T20:49:40.515Z,94916.27
2018-08-16T20:52:09.741Z,94923.35
2018-08-16T20:54:39.174Z,94918.59
2018-08-16T20:57:08.419Z,94921.62
2018-08-16T20:59:37.649Z,94920.92
2018-08-16T21:02:06.931Z,94924.07
2018-08-16T21:04:36.191Z,94927.84
2018-08-16T21:07:05.703Z,94930.80
2018-08-16T21:09:34.943Z,94934.27
2018-08-16T21:12:04.217Z,94931.81
2018-08-16T21:14:33.500Z,94934.98
2018-08-16T21:17:02.716Z,94931.70
2018-08-16T21:19:32.182Z,94934.05
2018-08-16T21:22:01.505Z,94933.81
2018-08-16T21:24:30.728Z,94933.73
2018-08-16T21:26:59.968Z,94936.26
2018-08-16T21:29:29.235Z,94935.20
2018-08-16T21:31:58.472Z,94935.83
2018-08-16T21:34:27.727Z,94935.58
2018-08-16T21:36:57.002Z,94933.23
2018-08-16T21:39:26.248Z,94935.13
2018-08-16T21:41:55.493Z,94932.02
2018-08-16T21:44:24.819Z,94933.52
2018-08-16T21:46:54.060Z,94929.19
2018-08-16T21:49:23.293Z,94937.06
2018-08-16T21:51:52.550Z,94934.65
2018-08-16T21:54:21.766Z,94943.28
2018-08-16T21:56:51.027Z,94940.75
2018-08-16T21:59:20.332Z,94944.00
2018-08-16T22:01:49.601Z,94937.29
2018-08-16T22:04:18.843Z,94940.22
2018-08-16T22:07:05.671Z,94943.78
2018-08-16T22:09:34.911Z,94946.50
2018-08-16T22:12:04.172Z,94944.71
2018-08-16T22:14:33.430Z,94940.92
2018-08-16T22:17:02.675Z,94940.97
2018-08-16T22:19:31.913Z,94935.81
2018-08-16T22:22:01.127Z,94942.44
2018-08-16T22:24:30.391Z,94931.94
2018-08-16T22:26:59.614Z,94931.07
2018-08-16T22:29:28.884Z,94931.98
2018-08-16T22:31:58.111Z,94932.59
2018-08-16T22:34:27.346Z,94931.77
2018-08-16T22:36:56.587Z,94935.39
2018-08-16T22:39:25.814Z,94934.34
2018-08-16T22:41:55.099Z,94932.32
2018-08-16T22:44:24.338Z,94932.82
2018-08-16T22:46:53.580Z,94936.07
2018-08-16T22:49:22.819Z,94928.43
2018-08-16T22:51:52.142Z,94928.42
2018-08-16T22:54:21.303Z,94930.28
2018-08-16T22:56:50.553Z,94928.73
2018-08-16T22:59:19.806Z,94932.95
2018-08-16T23:01:49.151Z,94925.28
2018-08-16T23:04:18.391Z,94916.92
2018-08-16T23:06:47.643Z,94916.43
2018-08-16T23:09:16.918Z,94917.87
2018-08-16T23:11:46.222Z,94924.37
2018-08-16T23:14:15.482Z,94924.75
2018-08-16T23:16:44.743Z,94916.87
2018-08-16T23:19:14.008Z,94922.52
2018-08-16T23:21:43.269Z,94926.68
2018-08-16T23:24:12.499Z,94930.92
2018-08-16T23:26:41.736Z,94921.79
2018-08-16T23:29:10.979Z,94921.84
2018-08-16T23:31:40.247Z,94919.23
2018-08-16T23:34:09.503Z,94921.55
2018-08-16T23:36:38.811Z,94928.18
2018-08-16T23:39:08.199Z,94920.86
2018-08-16T23:41:37.464Z,94923.42
2018-08-16T23:44:06.803Z,94918.91
2018-08-16T23:46:36.339Z,94920.77
2018-08-16T23:49:05.594Z,94922.03
2018-08-16T23:51:34.830Z,94921.09
2018-08-16T23:54:04.088Z,94924.42
2018-08-16T23:56:33.326Z,94928.05
2018-08-16T23:59:02.564Z,94928.30
